createdAt,value
2018-01-23T00:01:21.012Z,86.34
2018-01-23T00:03:48.549Z,86.05
2018-01-23T00:06:16.084Z,86.15
2018-01-23T00:08:43.721Z,86.13
2018-01-23T00:11:11.311Z,86.20
2018-01-23T00:13:38.841Z,86.11
2018-01-23T00:16:06.377Z,85.92
2018-01-23T00:18:33.982Z,86.08
2018-01-23T00:21:01.520Z,85.76
2018-01-23T00:23:29.070Z,85.85
2018-01-23T00:25:56.629Z,86.19
2018-01-23T00:28:24.181Z,86.40
2018-01-23T00:30:51.734Z,86.29
2018-01-23T00:33:19.265Z,86.32
2018-01-23T00:35:46.828Z,86.34
2018-01-23T00:38:14.358Z,86.19
2018-01-23T00:40:41.880Z,86.07
2018-01-23T00:43:09.447Z,86.34
2018-01-23T00:45:36.984Z,85.91
2018-01-23T00:48:04.552Z,85.61
2018-01-23T00:50:32.097Z,85.41
2018-01-23T00:52:59.614Z,85.49
2018-01-23T00:55:27.117Z,85.56
2018-01-23T00:57:54.704Z,85.73
2018-01-23T01:00:22.218Z,85.44
2018-01-23T01:02:49.761Z,85.34
2018-01-23T01:05:17.477Z,85.37
2018-01-23T01:07:45.066Z,85.63
2018-01-23T01:10:12.600Z,85.77
2018-01-23T01:12:40.120Z,85.35
2018-01-23T01:15:07.673Z,85.15
2018-01-23T01:17:35.378Z,85.44
2018-01-23T01:20:02.885Z,85.74
2018-01-23T01:22:30.414Z,85.72
2018-01-23T01:24:57.978Z,86.05
2018-01-23T01:27:25.486Z,85.48
2018-01-23T01:29:52.993Z,85.64
2018-01-23T01:32:20.553Z,85.77
2018-01-23T01:34:48.062Z,85.56
2018-01-23T01:37:15.561Z,85.69
2018-01-23T01:39:43.113Z,85.86
2018-01-23T01:42:10.893Z,85.77
2018-01-23T01:44:38.432Z,85.69
2018-01-23T01:47:06.065Z,85.52
2018-01-23T01:49:33.592Z,85.28
2018-01-23T01:52:01.124Z,85.05
2018-01-23T01:54:28.638Z,85.04
2018-01-23T01:56:56.149Z,85.51
2018-01-23T01:59:23.680Z,85.62
2018-01-23T02:01:51.277Z,85.50
2018-01-23T02:04:18.785Z,85.44
2018-01-23T02:06:46.315Z,85.48
2018-01-23T02:09:14.057Z,85.68
2018-01-23T02:11:41.599Z,85.77
2018-01-23T02:14:09.149Z,85.86
2018-01-23T02:16:36.684Z,85.80
2018-01-23T02:19:04.187Z,85.94
2018-01-23T02:21:31.719Z,86.13
2018-01-23T02:23:59.242Z,86.50
2018-01-23T02:26:26.860Z,86.66
2018-01-23T02:28:54.444Z,86.56
2018-01-23T02:31:22.007Z,86.65
2018-01-23T02:33:49.548Z,86.57
2018-01-23T02:36:17.054Z,86.52
2018-01-23T02:38:44.590Z,86.55
2018-01-23T02:41:12.128Z,86.24
2018-01-23T02:43:39.628Z,86.53
2018-01-23T02:46:07.181Z,86.69
2018-01-23T02:48:34.683Z,87.21
2018-01-23T02:51:02.199Z,87.35
2018-01-23T02:53:29.781Z,87.20
2018-01-23T02:55:57.366Z,87.65
2018-01-23T02:58:24.901Z,88.36
2018-01-23T03:00:52.478Z,88.71
2018-01-23T03:03:19.993Z,89.04
2018-01-23T03:05:47.609Z,89.40
2018-01-23T03:08:15.174Z,89.36
2018-01-23T03:10:42.824Z,89.22
2018-01-23T03:13:10.354Z,88.96
2018-01-23T03:15:37.908Z,88.77
2018-01-23T03:18:05.439Z,88.57
2018-01-23T03:20:33.040Z,88.56
2018-01-23T03:23:00.576Z,88.55
2018-01-23T03:25:28.138Z,88.40
2018-01-23T03:27:55.723Z,88.27
2018-01-23T03:30:23.252Z,88.19
2018-01-23T03:32:50.843Z,88.35
2018-01-23T03:35:18.357Z,88.68
2018-01-23T03:37:45.885Z,88.78
2018-01-23T03:40:13.453Z,88.92
2018-01-23T03:42:40.985Z,88.69
2018-01-23T03:45:08.818Z,88.85
2018-01-23T03:47:36.585Z,88.89
2018-01-23T03:50:04.126Z,88.79
2018-01-23T03:52:31.757Z,88.74
2018-01-23T03:54:59.262Z,88.84
2018-01-23T03:57:26.865Z,88.87
2018-01-23T03:59:54.424Z,88.81
2018-01-23T04:02:21.992Z,88.70
2018-01-23T04:04:49.525Z,88.63
2018-01-23T04:07:17.089Z,88.61
2018-01-23T04:09:44.627Z,88.55
2018-01-23T04:12:12.155Z,88.51
2018-01-23T04:14:39.699Z,88.29
2018-01-23T04:17:07.226Z,88.40
2018-01-23T04:19:34.758Z,88.30
2018-01-23T04:22:02.304Z,88.19
2018-01-23T04:24:29.833Z,88.29
2018-01-23T04:26:57.349Z,88.25
2018-01-23T04:29:24.925Z,88.11
2018-01-23T04:31:52.473Z,88.14
2018-01-23T04:34:20.001Z,88.16
2018-01-23T04:36:47.572Z,88.09
2018-01-23T04:39:15.084Z,88.30
2018-01-23T04:41:42.625Z,88.34
2018-01-23T04:44:10.150Z,88.40
2018-01-23T04:46:37.687Z,88.57
2018-01-23T04:49:05.212Z,88.57
2018-01-23T04:51:32.751Z,88.44
2018-01-23T04:54:00.267Z,88.49
2018-01-23T04:56:27.800Z,88.72
2018-01-23T04:58:55.348Z,88.81
2018-01-23T05:01:22.884Z,88.40
2018-01-23T05:03:50.393Z,88.46
2018-01-23T05:06:17.931Z,88.52
2018-01-23T05:08:45.462Z,88.62
2018-01-23T05:11:12.993Z,88.60
2018-01-23T05:13:40.556Z,88.63
2018-01-23T05:16:08.068Z,88.75
2018-01-23T05:18:35.593Z,88.84
2018-01-23T05:21:03.132Z,88.71
2018-01-23T05:23:30.731Z,88.37
2018-01-23T05:25:58.286Z,88.30
2018-01-23T05:28:25.799Z,88.21
2018-01-23T05:30:53.328Z,87.94
2018-01-23T05:33:20.872Z,87.97
2018-01-23T05:35:48.608Z,88.08
2018-01-23T05:38:16.132Z,88.05
2018-01-23T05:40:43.672Z,87.85
2018-01-23T05:43:11.296Z,87.90
2018-01-23T05:45:38.856Z,88.06
2018-01-23T05:48:06.527Z,88.26
2018-01-23T05:50:34.042Z,88.30
2018-01-23T05:53:01.554Z,88.11
2018-01-23T05:55:29.182Z,87.99
2018-01-23T05:57:56.681Z,87.91
2018-01-23T06:00:24.232Z,87.89
2018-01-23T06:02:51.742Z,88.09
2018-01-23T06:05:19.276Z,88.09
2018-01-23T06:07:46.874Z,88.10
2018-01-23T06:10:14.384Z,87.90
2018-01-23T06:12:41.914Z,87.79
2018-01-23T06:15:09.482Z,87.70
2018-01-23T06:17:36.991Z,88.05
2018-01-23T06:20:04.510Z,87.73
2018-01-23T06:22:32.037Z,87.59
2018-01-23T06:24:59.560Z,87.56
2018-01-23T06:27:27.102Z,87.94
2018-01-23T06:29:54.777Z,87.87
2018-01-23T06:32:22.351Z,87.65
2018-01-23T06:34:49.868Z,88.11
2018-01-23T06:37:17.386Z,87.69
2018-01-23T06:39:44.903Z,88.19
2018-01-23T06:42:12.461Z,88.59
2018-01-23T06:44:40.000Z,88.49
2018-01-23T06:47:07.541Z,88.24
2018-01-23T06:49:35.116Z,88.03
2018-01-23T06:52:03.276Z,88.13
2018-01-23T06:54:30.953Z,88.21
2018-01-23T06:56:58.506Z,88.31
2018-01-23T06:59:26.058Z,88.66
2018-01-23T07:01:53.605Z,88.79
2018-01-23T07:04:21.181Z,88.55
2018-01-23T07:06:48.718Z,88.51
2018-01-23T07:09:16.253Z,88.62
2018-01-23T07:11:43.818Z,88.19
2018-01-23T07:14:11.329Z,87.95
2018-01-23T07:16:39.254Z,88.01
2018-01-23T07:19:06.837Z,88.14
2018-01-23T07:21:34.353Z,88.18
2018-01-23T07:24:01.937Z,88.04
2018-01-23T07:26:29.461Z,88.23
2018-01-23T07:28:56.975Z,88.29
2018-01-23T07:31:24.500Z,88.32
2018-01-23T07:33:52.136Z,88.50
2018-01-23T07:36:19.688Z,88.49
2018-01-23T07:38:47.230Z,88.63
2018-01-23T07:41:14.788Z,89.03
2018-01-23T07:43:42.321Z,89.07
2018-01-23T07:46:09.858Z,89.19
2018-01-23T07:48:37.409Z,89.10
2018-01-23T07:51:04.924Z,88.97
2018-01-23T07:53:32.457Z,89.13
2018-01-23T07:56:00.005Z,89.25
2018-01-23T07:58:29.479Z,89.59
2018-01-23T08:01:05.371Z,89.91
2018-01-23T08:03:36.974Z,89.60
2018-01-23T08:06:05.689Z,89.70
2018-01-23T08:08:33.862Z,89.29
2018-01-23T08:13:48.202Z,88.58
2018-01-23T08:16:16.681Z,88.64
2018-01-23T08:18:45.072Z,88.70
2018-01-23T08:21:13.732Z,88.63
2018-01-23T08:23:41.912Z,88.46
2018-01-23T08:26:10.326Z,88.38
2018-01-23T08:28:38.113Z,88.15
2018-01-23T08:31:05.919Z,87.76
2018-01-23T08:33:33.645Z,87.25
2018-01-23T08:36:02.381Z,86.93
2018-01-23T08:38:30.092Z,86.88
2018-01-23T08:40:58.194Z,86.99
2018-01-23T08:43:25.741Z,86.93
2018-01-23T08:45:53.336Z,86.59
2018-01-23T08:48:20.979Z,86.34
2018-01-23T08:50:48.496Z,86.26
2018-01-23T08:53:16.097Z,86.24
2018-01-23T08:55:43.649Z,86.77
2018-01-23T08:58:11.189Z,86.65
2018-01-23T09:00:38.731Z,85.92
2018-01-23T09:03:06.271Z,85.98
2018-01-23T09:05:33.800Z,85.97
2018-01-23T09:08:01.346Z,85.98
2018-01-23T09:10:28.891Z,85.69
2018-01-23T09:12:56.418Z,85.77
2018-01-23T09:15:23.927Z,86.06
2018-01-23T09:17:51.497Z,85.88
2018-01-23T09:20:19.010Z,85.45
2018-01-23T09:22:46.546Z,84.92
2018-01-23T09:25:14.062Z,85.23
2018-01-23T09:27:41.615Z,85.04
2018-01-23T09:30:09.164Z,85.11
2018-01-23T09:32:36.738Z,84.47
2018-01-23T09:35:04.279Z,85.04
2018-01-23T09:37:31.808Z,84.83
2018-01-23T09:39:59.365Z,84.37
2018-01-23T09:42:27.080Z,83.91
2018-01-23T09:44:54.631Z,83.07
2018-01-23T09:47:22.196Z,82.91
2018-01-23T09:49:49.727Z,81.84
2018-01-23T09:52:17.332Z,81.85
2018-01-23T09:54:44.882Z,82.04
2018-01-23T09:57:12.429Z,81.95
2018-01-23T09:59:39.968Z,82.24
2018-01-23T10:02:07.547Z,82.61
2018-01-23T10:04:35.058Z,82.95
2018-01-23T10:07:02.580Z,82.78
2018-01-23T10:09:30.126Z,82.62
2018-01-23T10:11:57.630Z,82.29
2018-01-23T10:14:25.153Z,82.36
2018-01-23T10:16:52.809Z,82.41
2018-01-23T10:19:20.339Z,82.45
2018-01-23T10:21:47.879Z,81.90
2018-01-23T10:24:15.605Z,81.60
2018-01-23T10:26:43.252Z,81.57
2018-01-23T10:29:10.763Z,81.17
2018-01-23T10:31:38.415Z,81.50
2018-01-23T10:34:05.939Z,81.02
2018-01-23T10:36:33.473Z,81.03
2018-01-23T10:39:01.128Z,80.87
2018-01-23T10:41:28.680Z,80.55
2018-01-23T10:43:56.220Z,80.42
2018-01-23T10:46:23.748Z,80.41
2018-01-23T10:48:51.316Z,80.82
2018-01-23T10:51:18.824Z,81.06
2018-01-23T10:56:20.207Z,80.68
2018-01-23T10:58:47.738Z,80.43
2018-01-23T11:01:15.277Z,80.64
2018-01-23T11:03:42.789Z,80.87
2018-01-23T11:06:10.327Z,81.16
2018-01-23T11:08:37.880Z,81.05
2018-01-23T11:11:05.488Z,81.01
2018-01-23T11:13:33.025Z,81.25
2018-01-23T11:16:00.581Z,81.38
2018-01-23T11:18:28.089Z,81.64
2018-01-23T11:20:55.694Z,81.98
2018-01-23T11:23:23.245Z,82.17
2018-01-23T11:25:50.760Z,82.07
2018-01-23T11:28:18.300Z,82.16
2018-01-23T11:30:45.836Z,82.12
2018-01-23T11:33:13.700Z,82.03
2018-01-23T11:35:41.277Z,82.18
2018-01-23T11:38:08.923Z,82.54
2018-01-23T11:40:36.448Z,82.92
2018-01-23T11:43:04.273Z,83.38
2018-01-23T11:45:31.814Z,83.40
2018-01-23T11:47:59.434Z,83.22
2018-01-23T11:50:26.977Z,82.89
2018-01-23T11:52:54.513Z,82.89
2018-01-23T11:55:22.451Z,82.08
2018-01-23T11:57:50.029Z,81.65
2018-01-23T12:00:17.599Z,81.92
2018-01-23T12:02:46.058Z,81.66
2018-01-23T12:05:17.135Z,82.04
2018-01-23T12:07:46.541Z,81.65
2018-01-23T12:10:14.092Z,82.02
2018-01-23T12:12:41.645Z,81.97
2018-01-23T12:15:09.916Z,81.77
2018-01-23T12:17:37.790Z,81.75
2018-01-23T12:20:05.435Z,81.91
2018-01-23T12:22:32.969Z,82.02
2018-01-23T12:25:00.515Z,82.27
2018-01-23T12:27:28.041Z,82.32
2018-01-23T12:29:55.672Z,82.48
2018-01-23T12:32:23.235Z,82.84
2018-01-23T12:34:50.780Z,83.14
2018-01-23T12:37:19.186Z,82.83
2018-01-23T12:39:46.724Z,82.79
2018-01-23T12:42:14.257Z,82.84
2018-01-23T12:47:15.258Z,83.52
2018-01-23T12:49:42.797Z,83.29
2018-01-23T12:52:10.551Z,83.26
2018-01-23T12:54:38.574Z,82.97
2018-01-23T12:57:07.954Z,83.19
2018-01-23T12:59:35.453Z,83.71
2018-01-23T13:02:04.184Z,83.91
2018-01-23T13:04:32.470Z,83.73
2018-01-23T13:07:00.080Z,83.78
2018-01-23T13:09:27.972Z,83.81
2018-01-23T13:11:55.807Z,84.13
2018-01-23T13:14:23.368Z,84.12
2018-01-23T13:16:52.593Z,83.84
2018-01-23T13:19:21.451Z,83.61
2018-01-23T13:21:49.151Z,83.66
2018-01-23T13:24:16.700Z,83.76
2018-01-23T13:26:44.258Z,84.03
2018-01-23T13:29:11.860Z,84.42
2018-01-23T13:31:39.396Z,84.58
2018-01-23T13:34:06.981Z,84.89
2018-01-23T13:36:34.502Z,85.09
2018-01-23T13:39:02.047Z,85.01
2018-01-23T13:41:29.661Z,85.21
2018-01-23T13:43:57.213Z,85.52
2018-01-23T13:46:25.304Z,85.29
2018-01-23T13:48:52.994Z,85.23
2018-01-23T13:51:20.556Z,85.40
2018-01-23T13:53:48.478Z,85.46
2018-01-23T13:56:16.037Z,85.48
2018-01-23T13:58:43.595Z,85.49
2018-01-23T14:01:11.245Z,85.90
2018-01-23T14:03:39.133Z,85.84
2018-01-23T14:06:06.695Z,86.12
2018-01-23T14:08:34.959Z,86.13
2018-01-23T14:11:02.485Z,86.16
2018-01-23T14:13:30.994Z,86.06
2018-01-23T14:15:58.546Z,86.48
2018-01-23T14:18:26.830Z,86.97
2018-01-23T14:20:54.489Z,87.52
2018-01-23T14:23:25.593Z,87.87
2018-01-23T14:25:53.165Z,88.44
2018-01-23T14:28:22.697Z,88.64
2018-01-23T14:30:50.250Z,88.80
2018-01-23T14:33:17.772Z,89.22
2018-01-23T14:35:45.594Z,89.51
2018-01-23T14:38:13.266Z,89.87
2018-01-23T14:40:40.800Z,90.37
2018-01-23T14:43:08.374Z,90.52
2018-01-23T14:45:36.337Z,90.73
2018-01-23T14:48:05.698Z,90.63
2018-01-23T14:50:33.260Z,90.94
2018-01-23T14:53:01.129Z,91.02
2018-01-23T14:55:29.445Z,90.99
2018-01-23T14:57:57.001Z,91.22
2018-01-23T15:00:24.626Z,91.40
2018-01-23T15:02:52.528Z,91.26
2018-01-23T15:05:20.275Z,91.24
2018-01-23T15:07:47.839Z,91.17
2018-01-23T15:10:15.408Z,91.29
2018-01-23T15:12:43.372Z,90.95
2018-01-23T15:15:12.094Z,90.96
2018-01-23T15:17:39.646Z,91.44
2018-01-23T15:20:07.586Z,91.51
2018-01-23T15:22:35.116Z,91.37
2018-01-23T15:25:03.030Z,91.22
2018-01-23T15:27:30.578Z,91.36
2018-01-23T15:29:58.111Z,91.41
2018-01-23T15:32:27.090Z,91.31
2018-01-23T15:34:54.907Z,91.29
2018-01-23T15:37:22.727Z,91.34
2018-01-23T15:39:50.266Z,91.45
2018-01-23T15:42:17.965Z,91.52
2018-01-23T15:44:45.536Z,91.57
2018-01-23T15:47:13.372Z,91.76
2018-01-23T15:49:40.954Z,91.46
2018-01-23T15:54:40.269Z,91.07
2018-01-23T15:57:07.803Z,90.94
2018-01-23T15:59:36.074Z,91.12
2018-01-23T16:02:03.644Z,91.10
2018-01-23T16:04:34.754Z,91.14
2018-01-23T16:07:03.887Z,91.16
2018-01-23T16:09:31.549Z,91.25
2018-01-23T16:11:59.105Z,91.27
2018-01-23T16:14:28.442Z,91.32
2018-01-23T16:16:56.102Z,91.63
2018-01-23T16:19:25.574Z,91.91
2018-01-23T16:21:53.149Z,92.03
2018-01-23T16:24:21.693Z,92.06
2018-01-23T16:26:49.281Z,92.31
2018-01-23T16:29:17.075Z,92.50
2018-01-23T16:31:44.942Z,92.48
2018-01-23T16:34:12.698Z,92.76
2018-01-23T16:36:40.350Z,93.13
2018-01-23T16:39:08.189Z,93.35
2018-01-23T16:41:36.609Z,93.22
2018-01-23T16:44:04.193Z,93.31
2018-01-23T16:46:31.733Z,93.34
2018-01-23T16:48:59.275Z,93.48
2018-01-23T16:51:26.829Z,93.58
2018-01-23T16:53:54.615Z,93.53
2018-01-23T16:56:22.380Z,93.52
2018-01-23T16:58:49.935Z,93.52
2018-01-23T17:01:17.436Z,93.54
2018-01-23T17:03:45.897Z,93.51
2018-01-23T17:06:13.407Z,93.61
2018-01-23T17:08:41.072Z,93.79
2018-01-23T17:11:08.709Z,93.95
2018-01-23T17:13:36.252Z,93.96
2018-01-23T17:16:04.198Z,93.92
2018-01-23T17:18:32.047Z,93.95
2018-01-23T17:20:59.577Z,94.02
2018-01-23T17:23:27.129Z,94.00
2018-01-23T17:25:54.709Z,94.05
2018-01-23T17:28:23.947Z,94.14
2018-01-23T17:30:51.496Z,94.27
2018-01-23T17:33:19.110Z,94.42
2018-01-23T17:35:47.517Z,94.47
2018-01-23T17:38:15.060Z,94.57
2018-01-23T17:40:42.596Z,94.48
2018-01-23T17:43:10.162Z,94.44
2018-01-23T17:45:37.733Z,94.31
2018-01-23T17:48:05.300Z,94.32
2018-01-23T17:50:32.874Z,94.38
2018-01-23T17:53:00.413Z,94.37
2018-01-23T17:55:29.541Z,94.50
2018-01-23T17:57:57.132Z,94.52
2018-01-23T18:00:29.246Z,94.61
2018-01-23T18:02:57.091Z,94.66
2018-01-23T18:05:24.624Z,94.68
2018-01-23T18:07:52.149Z,94.68
2018-01-23T18:10:21.899Z,94.59
2018-01-23T18:12:49.782Z,94.61
2018-01-23T18:15:17.290Z,94.65
2018-01-23T18:17:44.931Z,94.71
2018-01-23T18:20:12.567Z,94.75
2018-01-23T18:22:40.110Z,94.79
2018-01-23T18:25:07.646Z,94.85
2018-01-23T18:27:38.891Z,94.86
2018-01-23T18:30:06.456Z,94.91
2018-01-23T18:32:37.588Z,94.87
2018-01-23T18:35:05.128Z,94.90
2018-01-23T18:37:32.661Z,94.95
2018-01-23T18:40:00.239Z,95.14
2018-01-23T18:42:27.797Z,95.30
2018-01-23T18:44:56.660Z,95.53
2018-01-23T18:47:25.913Z,95.74
2018-01-23T18:49:53.858Z,95.90
2018-01-23T18:52:21.398Z,95.99
2018-01-23T18:54:48.943Z,96.10
2018-01-23T18:57:16.485Z,96.21
2018-01-23T18:59:45.500Z,96.32
2018-01-23T19:02:13.037Z,96.38
2018-01-23T19:04:40.564Z,96.51
2018-01-23T19:09:39.829Z,96.67
2018-01-23T19:12:07.492Z,96.63
2018-01-23T19:14:35.800Z,96.58
2018-01-23T19:17:05.130Z,96.46
2018-01-23T19:19:33.072Z,96.34
2018-01-23T19:22:00.600Z,96.25
2018-01-23T19:24:28.131Z,96.13
2018-01-23T19:26:55.693Z,96.07
2018-01-23T19:29:23.249Z,95.92
2018-01-23T19:31:50.825Z,95.74
2018-01-23T19:34:18.835Z,95.61
2018-01-23T19:36:46.382Z,95.49
2018-01-23T19:39:14.597Z,95.33
2018-01-23T19:41:42.198Z,95.27
2018-01-23T19:44:09.962Z,95.25
2018-01-23T19:46:37.551Z,95.22
2018-01-23T19:49:05.313Z,95.24
2018-01-23T19:51:32.843Z,95.21
2018-01-23T19:54:00.747Z,95.19
2018-01-23T19:56:29.808Z,95.04
2018-01-23T19:58:57.365Z,95.02
2018-01-23T20:01:25.232Z,95.00
2018-01-23T20:03:53.605Z,94.85
2018-01-23T20:06:21.560Z,94.66
2018-01-23T20:08:52.764Z,94.53
2018-01-23T20:11:20.384Z,94.44
2018-01-23T20:13:48.042Z,94.34
2018-01-23T20:16:15.581Z,94.24
2018-01-23T20:18:43.141Z,94.10
2018-01-23T20:21:10.687Z,94.04
2018-01-23T20:23:38.308Z,93.91
2018-01-23T20:26:06.181Z,93.73
2018-01-23T20:28:33.808Z,93.42
2018-01-23T20:31:02.089Z,93.16
2018-01-23T20:33:29.868Z,93.07
2018-01-23T20:35:57.400Z,93.06
2018-01-23T20:38:25.278Z,93.06
2018-01-23T20:40:53.174Z,92.96
2018-01-23T20:43:20.811Z,92.82
2018-01-23T20:45:51.839Z,92.58
2018-01-23T20:48:19.700Z,92.39
2018-01-23T20:50:50.683Z,92.11
2018-01-23T20:53:18.229Z,91.90
2018-01-23T20:55:45.761Z,91.78
2018-01-23T20:58:13.297Z,91.69
2018-01-23T21:00:40.921Z,91.46
2018-01-23T21:03:08.476Z,91.36
2018-01-23T21:05:36.933Z,91.23
2018-01-23T21:08:04.945Z,91.22
2018-01-23T21:10:32.585Z,91.15
2018-01-23T21:13:00.145Z,91.03
2018-01-23T21:15:27.680Z,90.95
2018-01-23T21:17:55.261Z,90.89
2018-01-23T21:20:22.786Z,90.70
2018-01-23T21:22:52.307Z,90.44
2018-01-23T21:25:19.848Z,90.45
2018-01-23T21:27:48.351Z,90.27
2018-01-23T21:30:15.944Z,90.11
2018-01-23T21:32:43.477Z,90.08
2018-01-23T21:35:12.221Z,90.05
2018-01-23T21:37:39.743Z,90.10
2018-01-23T21:40:07.270Z,90.01
2018-01-23T21:42:34.800Z,89.87
2018-01-23T21:45:03.320Z,89.55
2018-01-23T21:47:31.771Z,89.55
2018-01-23T21:50:00.282Z,89.64
2018-01-23T21:52:27.823Z,89.56
2018-01-23T21:54:55.406Z,89.64
2018-01-23T21:57:22.975Z,89.75
2018-01-23T21:59:50.600Z,89.66
2018-01-23T22:02:18.109Z,89.81
2018-01-23T22:04:45.657Z,89.90
2018-01-23T22:07:14.028Z,90.07
2018-01-23T22:09:41.569Z,90.21
2018-01-23T22:12:09.123Z,90.44
2018-01-23T22:14:36.651Z,90.87
2018-01-23T22:17:05.660Z,90.79
2018-01-23T22:19:33.236Z,90.78
2018-01-23T22:22:00.818Z,90.77
2018-01-23T22:24:28.358Z,90.86
2018-01-23T22:26:56.141Z,90.93
2018-01-23T22:29:23.655Z,90.87
2018-01-23T22:31:51.486Z,90.84
2018-01-23T22:34:19.354Z,90.65
2018-01-23T22:36:50.716Z,90.26
2018-01-23T22:39:18.295Z,90.51
2018-01-23T22:41:46.122Z,90.67
2018-01-23T22:44:13.990Z,90.36
2018-01-23T22:46:42.476Z,90.53
2018-01-23T22:49:10.248Z,90.59
2018-01-23T22:51:38.108Z,90.23
2018-01-23T22:54:05.976Z,90.15
2018-01-23T22:56:33.517Z,89.98
2018-01-23T22:59:02.014Z,89.66
2018-01-23T23:01:30.937Z,89.13
2018-01-23T23:06:31.291Z,88.59
2018-01-23T23:08:58.842Z,88.09
2018-01-23T23:11:26.363Z,87.95
2018-01-23T23:13:53.926Z,88.13
2018-01-23T23:16:21.470Z,87.57
2018-01-23T23:18:49.013Z,87.26
2018-01-23T23:21:16.581Z,86.86
2018-01-23T23:23:44.132Z,86.70
2018-01-23T23:26:12.033Z,86.44
2018-01-23T23:28:39.586Z,86.34
2018-01-23T23:31:08.951Z,86.49
2018-01-23T23:33:36.754Z,86.27
2018-01-23T23:36:04.719Z,86.24
2018-01-23T23:38:32.262Z,86.00
2018-01-23T23:40:59.853Z,85.98
2018-01-23T23:43:27.405Z,85.83
2018-01-23T23:45:54.954Z,85.78
2018-01-23T23:48:22.510Z,85.47
2018-01-23T23:50:50.210Z,85.57
2018-01-23T23:53:18.146Z,85.51
2018-01-23T23:55:46.522Z,85.47
2018-01-23T23:58:14.126Z,85.49
